Institute, Wisconsin
Current Conditions -  °F | °C
As of 9:55 PM on Friday 24 Oct 2014 (Local Time) from KSUE Reporting Station
Overcast Overcast  
Wind Chill: 50°   Ceiling: 3000
Heat Index: 50°   Visibility: 2.5mi
Dew Point: 48°   Wind: 9mph
Humidity: 94%   Direction: 190°S
Pressure: 29.87"   Gusts: NA
Location:  44.7888°N, 87.4464°W
Report Text: KSUE 250255Z AUTO 19008KT 2 1/2SM SCT002 BKN030 OVC065 10/09 A2987 RMK AO1 57014
Loading
Personal Weather Stations






























Interactive Weather Map
Tropical Storm Tracking
New forecast layout! Learn more

10-Day Weather Forecast

Advertisements
Track Severe Weather on mobile